Time;durP1;ratioP1;P1;durP2;ratioP2;P2;SDS_P1;SDS_P2;PMS_P1;PMS_P2;Temp;Humidity;BMP_temperature;BMP_pressure;BME280_temperature;BME280_humidity;BME280_pressure;Samples;Min_cycle;Max_cycle;Signal;HPM_P1;HPM_P2
2022/07/31 00:01:41;;;;;;;12.70;9.80;;;17.90;99.90;;;;;;5009955;28;20323;-92
2022/07/31 00:04:09;;;;;;;15.20;9.02;;;17.90;99.90;;;;;;5028693;28;20224;-91
2022/07/31 00:06:36;;;;;;;13.23;10.18;;;17.90;99.90;;;;;;5011964;28;20233;-91
2022/07/31 00:09:03;;;;;;;9.45;8.32;;;17.80;99.90;;;;;;5021376;28;20320;-91
2022/07/31 00:11:30;;;;;;;11.48;8.70;;;17.80;99.90;;;;;;5036656;28;20687;-91
2022/07/31 00:13:57;;;;;;;18.27;9.32;;;17.80;99.90;;;;;;5016452;28;20232;-92
2022/07/31 00:16:24;;;;;;;14.15;8.93;;;17.80;99.90;;;;;;5032644;28;20225;-91
2022/07/31 00:18:50;;;;;;;14.33;9.70;;;17.70;99.90;;;;;;5015072;28;20284;-92
2022/07/31 00:21:18;;;;;;;14.55;9.88;;;17.70;99.90;;;;;;5013250;28;20228;-91
2022/07/31 00:23:45;;;;;;;11.27;8.63;;;17.70;99.90;;;;;;5030122;28;20272;-91
2022/07/31 00:26:12;;;;;;;12.63;8.77;;;17.60;99.90;;;;;;5026067;28;20230;-91
2022/07/31 00:28:39;;;;;;;15.43;9.03;;;17.60;99.90;;;;;;5041180;28;20261;-91
2022/07/31 00:31:06;;;;;;;10.37;8.83;;;17.60;99.90;;;;;;5012237;28;20256;-92
2022/07/31 00:33:32;;;;;;;12.38;9.55;;;17.50;99.90;;;;;;5012431;28;20251;-92
2022/07/31 00:35:59;;;;;;;14.80;9.97;;;17.50;99.90;;;;;;5014687;28;20754;-92
2022/07/31 00:38:27;;;;;;;19.13;10.50;;;17.40;99.90;;;;;;5018010;28;20221;-92
2022/07/31 00:40:54;;;;;;;17.83;10.70;;;17.40;99.90;;;;;;5036005;28;20221;-92
2022/07/31 00:43:21;;;;;;;13.97;9.77;;;17.40;99.90;;;;;;5014842;28;20292;-92
2022/07/31 00:45:49;;;;;;;14.37;9.50;;;17.40;99.90;;;;;;5027580;28;20225;-92
2022/07/31 00:48:16;;;;;;;12.47;10.07;;;17.30;99.90;;;;;;5011400;28;20942;-92
2022/07/31 00:50:43;;;;;;;12.15;10.77;;;17.30;99.90;;;;;;5030012;28;20246;-91
2022/07/31 00:53:10;;;;;;;15.37;9.30;;;17.20;99.90;;;;;;5010498;28;20220;-92
2022/07/31 00:55:38;;;;;;;13.30;10.00;;;17.20;99.90;;;;;;5032949;28;20216;-92
2022/07/31 00:58:04;;;;;;;12.30;9.80;;;17.20;99.90;;;;;;5011571;28;20221;-92
2022/07/31 01:00:31;;;;;;;12.03;10.27;;;17.20;99.90;;;;;;5026651;28;20300;-92
2022/07/31 01:02:58;;;;;;;10.80;9.57;;;17.10;99.90;;;;;;5008960;28;20221;-92
2022/07/31 01:05:25;;;;;;;15.67;10.00;;;17.10;99.90;;;;;;5010652;28;20315;-92
2022/07/31 01:07:52;;;;;;;11.63;9.37;;;17.10;99.90;;;;;;5018592;28;20221;-92
2022/07/31 01:10:32;;;;;;;13.83;10.57;;;17.10;99.90;;;;;;5011803;28;20299;-92
2022/07/31 01:13:07;;;;;;;13.87;10.63;;;17.00;99.90;;;;;;5032320;28;20244;-91
2022/07/31 01:15:36;;;;;;;12.93;9.77;;;17.00;99.90;;;;;;5033420;28;20301;-92
2022/07/31 01:18:04;;;;;;;12.87;9.80;;;17.00;99.90;;;;;;5020539;28;20228;-91
2022/07/31 01:20:33;;;;;;;13.13;10.07;;;17.00;99.90;;;;;;5010743;28;20245;-92
2022/07/31 01:23:27;;;;;;;11.97;9.93;;;17.00;99.90;;;;;;5012347;28;20220;-92
2022/07/31 01:26:40;;;;;;;13.17;9.63;;;17.00;99.90;;;;;;5013216;28;20228;-92
2022/07/31 01:29:18;;;;;;;14.83;9.53;;;17.00;99.90;;;;;;5033513;28;20250;-92
2022/07/31 01:31:51;;;;;;;14.07;8.97;;;16.90;99.90;;;;;;5030484;28;20252;-91
2022/07/31 01:34:25;;;;;;;13.77;10.23;;;16.90;99.90;;;;;;5031959;28;20227;-90
2022/07/31 01:37:02;;;;;;;14.27;9.65;;;16.90;99.90;;;;;;5013916;28;20579;-92
2022/07/31 01:39:35;;;;;;;14.97;10.50;;;16.90;99.90;;;;;;5016923;28;20228;-91
2022/07/31 01:42:05;;;;;;;12.10;10.23;;;16.80;99.90;;;;;;5010367;28;20654;-92
2022/07/31 01:44:38;;;;;;;14.73;10.33;;;16.80;99.90;;;;;;5025537;28;20242;-91
2022/07/31 01:47:06;;;;;;;15.17;9.90;;;16.70;99.90;;;;;;5012626;28;20229;-91
2022/07/31 01:49:34;;;;;;;12.83;9.97;;;16.70;99.90;;;;;;5029666;28;20307;-92
2022/07/31 01:52:04;;;;;;;12.20;9.87;;;16.70;99.90;;;;;;5027504;28;20287;-92
2022/07/31 01:54:33;;;;;;;13.73;9.20;;;16.70;99.90;;;;;;5011101;28;20275;-92
2022/07/31 01:57:02;;;;;;;11.03;9.70;;;16.70;99.90;;;;;;5009168;28;20786;-92
2022/07/31 01:59:30;;;;;;;11.83;9.47;;;16.70;99.90;;;;;;5017487;28;20235;-92
2022/07/31 02:02:10;;;;;;;16.77;10.07;;;16.70;99.90;;;;;;5027400;28;20289;-92
2022/07/31 02:04:37;;;;;;;15.60;10.13;;;16.70;99.90;;;;;;5029498;28;20302;-90
2022/07/31 02:07:07;;;;;;;13.33;10.60;;;16.60;99.90;;;;;;5014863;28;20224;-92
2022/07/31 02:09:35;;;;;;;10.77;9.40;;;16.60;99.90;;;;;;5026845;28;21109;-92
2022/07/31 02:12:04;;;;;;;13.07;10.43;;;16.60;99.90;;;;;;5012751;28;20259;-92
2022/07/31 02:14:31;;;;;;;12.57;10.30;;;16.60;99.90;;;;;;5007900;28;21043;-92
2022/07/31 02:16:59;;;;;;;16.77;10.10;;;16.60;99.90;;;;;;5016656;28;20290;-94
2022/07/31 02:19:45;;;;;;;13.70;10.90;;;16.50;99.90;;;;;;5011476;28;20693;-91
2022/07/31 02:22:12;;;;;;;14.17;10.80;;;16.50;99.90;;;;;;5013032;28;20231;-92
2022/07/31 02:24:39;;;;;;;13.10;10.43;;;16.40;99.90;;;;;;5024394;28;20228;-92
2022/07/31 02:27:07;;;;;;;12.47;11.07;;;16.40;99.90;;;;;;5017024;28;20224;-91
2022/07/31 02:29:35;;;;;;;11.03;9.93;;;16.40;99.90;;;;;;5022778;28;20248;-92
2022/07/31 02:32:04;;;;;;;13.00;10.90;;;16.40;99.90;;;;;;5018788;28;20605;-92
2022/07/31 02:34:34;;;;;;;15.07;10.77;;;16.30;99.90;;;;;;5019543;28;20228;-91
2022/07/31 02:37:04;;;;;;;15.43;9.70;;;16.30;99.90;;;;;;5016099;28;20287;-92
2022/07/31 02:39:34;;;;;;;12.70;9.73;;;16.30;99.90;;;;;;5014777;28;20236;-92
2022/07/31 02:42:01;;;;;;;11.10;9.00;;;16.20;99.90;;;;;;5012088;28;20235;-93
2022/07/31 02:44:30;;;;;;;10.57;8.53;;;16.20;99.90;;;;;;5029712;28;20253;-91
2022/07/31 02:46:58;;;;;;;11.27;8.37;;;16.10;99.90;;;;;;5010050;28;20250;-91
2022/07/31 02:49:26;;;;;;;11.73;8.00;;;16.10;99.90;;;;;;5011851;28;20276;-91
2022/07/31 02:51:54;;;;;;;13.00;9.03;;;16.10;99.90;;;;;;5021129;28;20510;-91
2022/07/31 02:54:23;;;;;;;8.77;7.87;;;16.10;99.90;;;;;;5031011;28;20750;-92
2022/07/31 02:56:51;;;;;;;10.60;8.23;;;16.00;99.90;;;;;;5040369;28;20709;-91
2022/07/31 02:59:18;;;;;;;9.83;8.13;;;16.00;99.90;;;;;;5015116;28;20270;-91
2022/07/31 03:01:58;;;;;;;13.57;8.27;;;15.90;99.90;;;;;;5006480;28;20762;-92
2022/07/31 03:04:25;;;;;;;9.67;7.83;;;15.90;99.90;;;;;;5007420;28;20227;-90
2022/07/31 03:06:54;;;;;;;11.90;8.50;;;15.90;99.90;;;;;;5030984;28;20287;-91
2022/07/31 03:09:22;;;;;;;10.80;8.43;;;15.80;99.90;;;;;;5012717;28;20270;-92
2022/07/31 03:11:57;;;;;;;12.57;9.70;;;15.70;99.90;;;;;;5031814;28;20343;-92
2022/07/31 03:14:25;;;;;;;10.90;8.80;;;15.60;99.90;;;;;;5025267;28;20242;-93
2022/07/31 03:16:53;;;;;;;11.47;9.70;;;15.60;99.90;;;;;;5010498;28;20223;-91
2022/07/31 03:19:22;;;;;;;10.20;9.10;;;15.50;99.90;;;;;;5008126;28;20232;-92
2022/07/31 03:21:51;;;;;;;11.60;9.97;;;15.50;99.90;;;;;;5017815;28;20306;-92
2022/07/31 03:24:19;;;;;;;13.80;9.60;;;15.40;99.90;;;;;;5015421;28;20250;-91
2022/07/31 03:26:47;;;;;;;13.33;11.17;;;15.40;99.90;;;;;;5012855;28;20223;-92
2022/07/31 03:29:14;;;;;;;11.70;10.40;;;15.30;99.90;;;;;;5010123;28;20898;-91
2022/07/31 03:31:40;;;;;;;11.77;9.23;;;15.30;99.90;;;;;;5029325;28;20307;-92
2022/07/31 03:34:07;;;;;;;13.43;8.90;;;15.20;99.90;;;;;;5009526;28;20222;-91
2022/07/31 03:36:35;;;;;;;11.17;9.40;;;15.20;99.90;;;;;;5034722;28;20936;-92
2022/07/31 03:39:02;;;;;;;9.57;8.67;;;15.20;99.90;;;;;;5035115;28;20224;-92
2022/07/31 03:41:35;;;;;;;8.70;7.80;;;15.10;99.90;;;;;;5029524;28;20232;-91
2022/07/31 03:44:03;;;;;;;10.17;8.07;;;15.10;99.90;;;;;;5008965;28;20306;-91
2022/07/31 03:46:30;;;;;;;12.67;10.03;;;15.10;99.90;;;;;;5014767;28;20227;-92
2022/07/31 03:48:58;;;;;;;10.70;9.00;;;15.00;99.90;;;;;;5031434;28;20244;-91
2022/07/31 03:51:27;;;;;;;12.63;8.63;;;15.00;99.90;;;;;;5028002;28;20234;-92
2022/07/31 03:53:54;;;;;;;11.33;8.60;;;15.00;99.90;;;;;;5014936;28;20231;-91
2022/07/31 03:56:43;;;;;;;12.43;10.20;;;15.00;99.90;;;;;;5031350;28;20226;-91
2022/07/31 03:59:12;;;;;;;10.97;9.07;;;14.90;99.90;;;;;;5016051;28;20282;-91
2022/07/31 04:01:39;;;;;;;11.30;9.93;;;14.90;99.90;;;;;;5006693;28;20235;-91
2022/07/31 04:04:07;;;;;;;12.10;8.47;;;14.80;99.90;;;;;;5027840;28;20231;-92
2022/07/31 04:06:39;;;;;;;10.80;9.53;;;14.80;99.90;;;;;;5036039;28;20223;-92
2022/07/31 04:09:07;;;;;;;9.87;8.87;;;14.80;99.90;;;;;;5022339;28;20248;-91
2022/07/31 04:11:34;;;;;;;11.10;9.20;;;14.80;99.90;;;;;;5008703;28;20227;-91
2022/07/31 04:14:01;;;;;;;10.97;9.00;;;14.80;99.90;;;;;;5015411;28;20240;-91
2022/07/31 04:16:29;;;;;;;11.13;9.10;;;14.80;99.90;;;;;;5030602;28;20280;-92
2022/07/31 04:18:56;;;;;;;12.53;9.73;;;14.80;99.90;;;;;;5010299;28;20807;-92
2022/07/31 04:21:23;;;;;;;13.80;12.13;;;14.80;99.90;;;;;;5027221;28;20228;-91
2022/07/31 04:23:50;;;;;;;12.80;11.47;;;14.80;99.90;;;;;;5010843;28;20269;-91
2022/07/31 04:26:44;;;;;;;13.67;9.73;;;14.80;99.90;;;;;;5026200;28;20692;-92
2022/07/31 04:29:11;;;;;;;11.13;9.73;;;14.90;99.90;;;;;;5010509;28;20219;-92
2022/07/31 04:31:39;;;;;;;11.63;10.43;;;14.90;99.90;;;;;;5008501;28;20222;-91
2022/07/31 04:34:08;;;;;;;12.47;10.30;;;14.90;99.90;;;;;;5031457;28;20223;-92
2022/07/31 04:36:36;;;;;;;14.73;11.60;;;15.00;99.90;;;;;;5028876;28;20260;-92
2022/07/31 04:39:04;;;;;;;15.67;12.17;;;15.10;99.90;;;;;;5004638;28;20274;-92
2022/07/31 04:41:30;;;;;;;16.27;13.10;;;15.10;99.90;;;;;;5030446;28;21091;-92
2022/07/31 04:43:58;;;;;;;16.17;12.73;;;15.30;99.90;;;;;;5012664;28;20278;-91
2022/07/31 04:46:26;;;;;;;18.13;12.67;;;15.30;99.90;;;;;;5026677;28;20302;-91
2022/07/31 04:48:56;;;;;;;15.47;13.00;;;15.50;99.90;;;;;;5029392;28;20303;-91
2022/07/31 04:51:26;;;;;;;16.03;13.57;;;15.60;99.90;;;;;;5030010;28;20281;-90
2022/07/31 04:53:52;;;;;;;16.13;13.87;;;15.80;99.90;;;;;;5008647;28;20462;-92
2022/07/31 04:56:34;;;;;;;18.23;14.13;;;15.90;99.90;;;;;;5010992;28;20228;-91
2022/07/31 04:59:04;;;;;;;14.77;13.17;;;16.00;99.90;;;;;;5031237;28;20311;-90
2022/07/31 05:01:30;;;;;;;18.90;13.47;;;16.20;99.90;;;;;;5018864;28;20864;-92
2022/07/31 05:03:59;;;;;;;19.57;12.50;;;16.40;99.90;;;;;;5011983;28;20259;-92
2022/07/31 05:06:34;;;;;;;16.50;12.90;;;16.40;99.90;;;;;;5028404;28;20248;-91
2022/07/31 05:09:01;;;;;;;16.77;12.03;;;16.60;99.90;;;;;;5032310;28;20224;-92
2022/07/31 05:11:30;;;;;;;13.83;12.43;;;16.60;99.90;;;;;;5012189;28;20225;-92
2022/07/31 05:13:59;;;;;;;17.37;12.47;;;16.80;99.90;;;;;;5027598;28;20225;-92
2022/07/31 05:16:27;;;;;;;13.23;11.70;;;16.80;99.90;;;;;;5011012;28;20220;-90
2022/07/31 05:18:54;;;;;;;15.43;12.47;;;16.90;99.90;;;;;;5030629;28;20220;-92
2022/07/31 05:21:41;;;;;;;15.43;11.40;;;17.00;99.90;;;;;;5025898;28;20220;-92
2022/07/31 05:24:35;;;;;;;12.70;11.07;;;17.10;99.90;;;;;;5011197;28;20575;-91
2022/07/31 05:27:06;;;;;;;12.43;10.63;;;17.20;99.90;;;;;;5036052;28;20243;-91
2022/07/31 05:29:33;;;;;;;14.17;11.53;;;17.30;99.90;;;;;;5034363;28;20225;-91
2022/07/31 05:32:01;;;;;;;16.20;12.03;;;17.30;99.90;;;;;;5019423;28;20275;-92
2022/07/31 05:34:29;;;;;;;13.13;11.03;;;17.40;99.90;;;;;;5013209;28;20588;-91
2022/07/31 05:36:59;;;;;;;15.60;11.50;;;17.50;99.90;;;;;;5018463;28;20307;-92
2022/07/31 05:39:27;;;;;;;18.00;10.87;;;17.50;99.90;;;;;;5030184;28;20224;-91
2022/07/31 05:42:12;;;;;;;15.87;10.30;;;17.60;99.90;;;;;;5031197;28;20754;-92
2022/07/31 05:45:09;;;;;;;14.52;10.15;;;17.70;99.90;;;;;;4991853;28;20314;-92
2022/07/31 05:47:37;;;;;;;15.00;11.93;;;17.80;99.90;;;;;;5037937;28;20249;-92
2022/07/31 05:50:05;;;;;;;13.30;11.07;;;17.90;99.90;;;;;;5018815;28;20325;-90
2022/07/31 05:52:34;;;;;;;11.83;10.33;;;17.90;99.90;;;;;;5014584;28;20235;-91
2022/07/31 05:55:27;;;;;;;14.43;11.20;;;17.90;99.90;;;;;;5029189;28;20229;-92
2022/07/31 05:58:08;;;;;;;15.17;11.00;;;18.00;99.90;;;;;;5040651;28;20435;-92
2022/07/31 06:00:35;;;;;;;14.10;10.15;;;18.00;99.90;;;;;;5019247;28;20224;-92
2022/07/31 06:03:03;;;;;;;12.37;9.83;;;17.90;99.90;;;;;;5021904;28;21058;-92
2022/07/31 06:05:56;;;;;;;13.57;11.60;;;17.90;99.90;;;;;;5040053;28;20327;-91
2022/07/31 06:08:25;;;;;;;15.70;10.90;;;17.90;99.90;;;;;;5015205;28;20249;-92
2022/07/31 06:10:52;;;;;;;12.95;11.23;;;18.00;99.90;;;;;;5013377;28;20221;-91
2022/07/31 06:13:23;;;;;;;16.90;10.67;;;18.00;99.90;;;;;;5025282;28;20229;-91
2022/07/31 06:15:49;;;;;;;13.23;11.73;;;18.10;99.90;;;;;;5040330;28;20228;-92
2022/07/31 06:18:17;;;;;;;16.43;11.50;;;18.10;99.90;;;;;;5035090;28;20706;-92
2022/07/31 06:20:44;;;;;;;14.82;10.93;;;18.20;99.90;;;;;;5018836;28;20284;-93
2022/07/31 06:23:11;;;;;;;15.07;10.38;;;18.20;99.90;;;;;;5018440;28;20294;-92
2022/07/31 06:25:41;;;;;;;13.05;10.23;;;18.30;99.90;;;;;;5022928;28;20303;-93
2022/07/31 06:28:09;;;;;;;13.55;9.57;;;18.30;99.90;;;;;;5016608;28;20230;-93
2022/07/31 06:30:36;;;;;;;16.13;9.55;;;18.50;99.90;;;;;;5018361;28;20230;-93
2022/07/31 06:33:03;;;;;;;10.70;9.27;;;18.70;99.90;;;;;;5031645;28;20251;-92
2022/07/31 06:35:31;;;;;;;13.23;8.85;;;18.80;99.90;;;;;;5016756;28;21294;-92
2022/07/31 06:38:29;;;;;;;9.73;8.73;;;18.90;99.90;;;;;;5036367;28;20224;-92
2022/07/31 06:44:34;;;;;;;11.73;7.68;;;19.30;99.90;;;;;;4982890;28;20276;-92
2022/07/31 06:47:21;;;;;;;10.05;7.82;;;19.40;99.90;;;;;;5031629;28;20232;-91
2022/07/31 06:50:08;;;;;;;11.60;7.95;;;19.50;99.90;;;;;;5022812;28;20235;-91
2022/07/31 06:52:40;;;;;;;12.30;8.50;;;19.50;99.90;;;;;;5029422;28;20232;-91
2022/07/31 06:55:08;;;;;;;9.40;7.53;;;19.60;99.90;;;;;;5024876;28;20429;-91
2022/07/31 06:57:37;;;;;;;8.68;7.45;;;19.70;99.90;;;;;;5031273;28;20275;-91
2022/07/31 07:00:07;;;;;;;10.82;7.35;;;19.80;99.90;;;;;;5009377;28;20239;-92
2022/07/31 07:02:36;;;;;;;8.45;7.43;;;19.90;99.90;;;;;;5035015;28;20277;-91
2022/07/31 07:05:03;;;;;;;10.85;7.68;;;20.00;99.90;;;;;;5015932;28;20228;-88
2022/07/31 07:07:30;;;;;;;13.52;8.35;;;20.20;99.90;;;;;;5016870;28;20665;-91
2022/07/31 07:09:58;;;;;;;10.30;7.60;;;20.30;99.90;;;;;;5019300;28;20263;-90
2022/07/31 07:12:46;;;;;;;6.57;5.97;;;20.50;99.90;;;;;;5032937;28;20737;-91
2022/07/31 07:15:13;;;;;;;10.95;8.25;;;20.60;99.90;;;;;;5016733;28;20227;-93
2022/07/31 07:17:40;;;;;;;12.32;8.35;;;20.70;99.90;;;;;;5017285;28;20285;-91
2022/07/31 07:20:13;;;;;;;8.32;7.53;;;20.90;99.90;;;;;;5026253;28;20305;-90
2022/07/31 07:22:40;;;;;;;9.15;6.30;;;21.20;99.90;;;;;;5018615;28;20232;-90
2022/07/31 07:25:08;;;;;;;9.73;6.88;;;21.60;99.90;;;;;;5016883;28;20220;-91
2022/07/31 07:27:35;;;;;;;7.28;6.32;;;21.90;99.90;;;;;;5016739;28;20227;-93
2022/07/31 07:30:04;;;;;;;8.45;5.47;;;22.20;99.90;;;;;;5029078;28;20220;-91
2022/07/31 07:32:32;;;;;;;7.40;4.95;;;22.50;99.40;;;;;;5022343;28;20225;-89
2022/07/31 07:34:59;;;;;;;5.75;4.90;;;22.70;99.30;;;;;;5020842;28;20229;-91
2022/07/31 07:37:45;;;;;;;8.75;6.35;;;22.80;99.20;;;;;;5023740;28;20221;-92
2022/07/31 07:40:12;;;;;;;9.00;6.60;;;23.00;98.70;;;;;;5021048;28;20289;-91
2022/07/31 07:42:40;;;;;;;7.15;5.95;;;23.10;98.30;;;;;;5038664;28;20244;-90
2022/07/31 07:45:09;;;;;;;10.73;6.65;;;23.10;98.00;;;;;;5018965;28;20217;-90
2022/07/31 07:47:37;;;;;;;9.55;6.68;;;23.10;98.10;;;;;;5042859;28;20227;-91
2022/07/31 07:50:06;;;;;;;9.30;6.45;;;23.20;97.70;;;;;;5020443;28;20291;-90
2022/07/31 07:52:51;;;;;;;8.00;5.88;;;23.20;97.30;;;;;;5046891;28;20248;-90
2022/07/31 07:55:37;;;;;;;8.88;7.07;;;23.10;97.30;;;;;;5039588;28;20241;-92
2022/07/31 07:58:30;;;;;;;7.63;6.57;;;23.20;97.40;;;;;;5040171;28;20222;-92
2022/07/31 08:01:28;;;;;;;11.98;7.30;;;23.20;97.60;;;;;;4995388;28;20226;-92
2022/07/31 08:04:02;;;;;;;9.00;6.15;;;23.30;97.50;;;;;;5017154;28;20228;-92
2022/07/31 08:06:29;;;;;;;8.52;5.40;;;23.30;97.30;;;;;;5043255;28;20466;-92
2022/07/31 08:08:56;;;;;;;10.93;7.38;;;23.30;97.50;;;;;;5022074;28;20229;-92
2022/07/31 08:11:52;;;;;;;10.30;6.90;;;23.40;97.30;;;;;;5036302;28;20225;-91
2022/07/31 08:14:41;;;;;;;10.35;6.40;;;23.30;96.90;;;;;;5015605;28;20221;-92
2022/07/31 08:17:29;;;;;;;9.65;6.55;;;23.30;97.00;;;;;;5034066;28;21849;-91
2022/07/31 08:19:56;;;;;;;10.48;6.15;;;23.40;97.10;;;;;;5038411;28;20225;-92
2022/07/31 08:22:23;;;;;;;12.63;6.50;;;23.30;96.90;;;;;;5010321;28;20977;-91
2022/07/31 08:24:50;;;;;;;8.23;5.55;;;23.30;96.80;;;;;;5016822;28;20619;-91
2022/07/31 08:27:23;;;;;;;8.20;5.75;;;23.30;96.80;;;;;;5036937;28;20701;-92
2022/07/31 08:29:51;;;;;;;6.57;4.97;;;23.20;96.60;;;;;;5032794;28;20233;-92
2022/07/31 08:32:19;;;;;;;10.40;4.88;;;23.20;96.50;;;;;;5031522;28;20252;-93
2022/07/31 08:35:07;;;;;;;6.15;4.47;;;23.10;96.10;;;;;;5031084;28;20309;-91
2022/07/31 08:37:34;;;;;;;8.75;4.50;;;23.10;95.70;;;;;;5016387;28;20224;-92
2022/07/31 08:40:00;;;;;;;10.40;4.80;;;22.90;95.80;;;;;;5024575;28;20232;-93
2022/07/31 08:42:27;;;;;;;5.70;3.92;;;22.80;95.80;;;;;;5018178;28;20243;-93
2022/07/31 08:44:54;;;;;;;8.65;4.50;;;22.70;96.10;;;;;;5017727;28;20205;-92
2022/07/31 08:47:28;;;;;;;11.60;3.90;;;22.60;95.40;;;;;;5018497;28;20702;-92
2022/07/31 08:49:59;;;;;;;5.57;4.07;;;22.40;95.90;;;;;;5032323;28;20235;-92
2022/07/31 08:52:31;;;;;;;9.50;4.78;;;22.40;96.20;;;;;;5020579;28;20280;-92
2022/07/31 08:55:22;;;;;;;8.50;4.10;;;22.20;95.90;;;;;;5028043;28;20682;-92
2022/07/31 08:57:49;;;;;;;8.63;4.15;;;22.30;96.50;;;;;;5038958;28;20229;-93
2022/07/31 09:00:18;;;;;;;7.53;3.92;;;22.30;96.30;;;;;;5018244;28;20804;-92
2022/07/31 09:02:45;;;;;;;7.40;4.03;;;22.30;95.70;;;;;;5034594;28;20225;-91
2022/07/31 09:05:31;;;;;;;7.43;3.63;;;22.40;95.40;;;;;;5035257;28;20247;-91
2022/07/31 09:08:02;;;;;;;8.30;3.88;;;22.40;94.70;;;;;;5017402;28;20225;-91
2022/07/31 09:10:30;;;;;;;8.00;3.50;;;22.40;94.80;;;;;;5014496;28;20260;-92
2022/07/31 09:12:57;;;;;;;5.95;3.65;;;22.40;94.90;;;;;;5019471;28;20244;-91
2022/07/31 09:15:27;;;;;;;6.00;3.55;;;22.40;94.40;;;;;;5016160;28;20216;-92
2022/07/31 09:17:56;;;;;;;5.57;3.15;;;22.40;94.00;;;;;;5019187;28;20217;-91
2022/07/31 09:20:25;;;;;;;4.40;3.50;;;22.40;94.30;;;;;;5015873;28;20238;-93
2022/07/31 09:23:05;;;;;;;5.65;3.83;;;22.40;94.30;;;;;;5016412;28;20304;-92
2022/07/31 09:25:33;;;;;;;5.80;3.10;;;22.50;94.20;;;;;;5032478;28;20235;-90
2022/07/31 09:28:04;;;;;;;10.95;3.75;;;22.60;94.50;;;;;;5030483;28;20316;-92
2022/07/31 09:30:32;;;;;;;7.63;3.22;;;22.70;94.10;;;;;;5016535;28;20227;-91
2022/07/31 09:33:20;;;;;;;4.45;2.95;;;22.90;94.30;;;;;;5028787;28;20321;-93
2022/07/31 09:36:25;;;;;;;4.03;2.88;;;23.00;93.90;;;;;;4954516;28;20234;-91
2022/07/31 09:39:01;;;;;;;5.55;3.05;;;23.30;93.80;;;;;;4951454;28;20231;-93
2022/07/31 09:41:31;;;;;;;5.90;2.70;;;23.40;93.10;;;;;;4997015;28;20228;-92
2022/07/31 09:44:09;;;;;;;5.50;2.63;;;23.60;93.30;;;;;;5016842;28;20232;-92
2022/07/31 09:46:39;;;;;;;4.45;2.83;;;23.80;93.20;;;;;;5026445;28;20228;-92
2022/07/31 09:49:06;;;;;;;4.63;2.22;;;24.00;92.50;;;;;;5019617;28;20224;-92
2022/07/31 09:51:39;;;;;;;3.10;2.72;;;24.20;92.60;;;;;;5018666;28;20241;-92
2022/07/31 09:54:08;;;;;;;4.72;2.22;;;24.40;91.70;;;;;;5013768;28;20217;-93
2022/07/31 09:57:11;;;;;;;3.33;2.05;;;24.60;91.30;;;;;;5009160;28;20278;-93
2022/07/31 09:59:39;;;;;;;3.78;2.30;;;24.80;90.70;;;;;;5019977;28;20883;-92
2022/07/31 10:02:08;;;;;;;4.10;2.30;;;24.90;90.80;;;;;;5038633;28;20754;-92
2022/07/31 10:04:37;;;;;;;5.18;2.30;;;24.90;90.40;;;;;;5014321;28;20782;-93
2022/07/31 10:07:05;;;;;;;4.53;2.72;;;25.00;90.10;;;;;;5010676;28;20224;-91
2022/07/31 10:09:34;;;;;;;2.63;2.17;;;25.10;90.10;;;;;;5007156;28;20714;-92
2022/07/31 10:12:19;;;;;;;2.40;1.83;;;25.10;89.20;;;;;;5015063;28;20229;-93
2022/07/31 10:14:50;;;;;;;4.00;2.35;;;25.40;89.90;;;;;;5025095;28;20228;-92
2022/07/31 10:17:20;;;;;;;2.75;2.20;;;25.50;90.00;;;;;;5017077;28;20225;-91
2022/07/31 10:20:17;;;;;;;5.03;2.30;;;25.70;89.20;;;;;;5024906;28;20814;-93
2022/07/31 10:23:06;;;;;;;4.22;2.70;;;26.10;89.20;;;;;;5036983;28;20389;-93
2022/07/31 10:25:39;;;;;;;3.00;2.20;;;26.50;87.70;;;;;;5017247;28;20252;-90
2022/07/31 10:28:07;;;;;;;2.80;1.88;;;26.80;87.30;;;;;;5033187;28;20248;-93
2022/07/31 10:30:37;;;;;;;2.97;2.15;;;27.20;87.30;;;;;;5033219;28;20224;-93
2022/07/31 10:33:05;;;;;;;4.03;2.55;;;27.50;86.00;;;;;;5034245;28;20225;-93
2022/07/31 10:35:48;;;;;;;2.75;2.00;;;28.00;85.50;;;;;;5034874;28;20217;-92
2022/07/31 10:39:01;;;;;;;4.50;2.33;;;28.30;83.30;;;;;;5040289;28;20256;-92
2022/07/31 10:41:59;;;;;;;4.53;2.00;;;28.60;80.20;;;;;;5028893;28;20690;-92
2022/07/31 10:44:34;;;;;;;2.42;1.98;;;28.80;79.90;;;;;;5015251;28;20224;-93
2022/07/31 10:47:30;;;;;;;4.60;2.55;;;28.70;76.80;;;;;;5036080;28;20223;-94
2022/07/31 10:50:06;;;;;;;2.45;1.98;;;28.80;77.60;;;;;;5038070;28;20248;-92
2022/07/31 10:52:44;;;;;;;3.38;2.00;;;28.80;77.50;;;;;;5025323;28;20235;-93
2022/07/31 10:55:15;;;;;;;2.88;1.70;;;28.80;77.30;;;;;;5040255;28;20765;-93
2022/07/31 10:58:15;;;;;;;4.43;1.85;;;28.80;75.20;;;;;;4973759;28;20302;-94
2022/07/31 11:00:52;;;;;;;3.72;2.00;;;28.80;73.50;;;;;;5042785;28;20204;-93
2022/07/31 11:03:40;;;;;;;3.08;1.80;;;28.80;74.20;;;;;;5043854;28;20223;-93
2022/07/31 11:06:26;;;;;;;2.40;1.50;;;28.80;74.10;;;;;;5042818;28;20215;-94
2022/07/31 11:09:29;;;;;;;2.83;1.83;;;28.90;73.00;;;;;;5024547;28;20228;-95
2022/07/31 11:12:24;;;;;;;2.60;1.77;;;28.90;71.40;;;;;;5038138;28;20218;-94
2022/07/31 11:15:24;;;;;;;3.40;1.70;;;28.90;73.20;;;;;;5043766;28;20391;-96
2022/07/31 11:18:12;;;;;;;2.40;1.63;;;29.00;72.80;;;;;;5010245;28;20224;-95
2022/07/31 11:20:45;;;;;;;4.25;1.52;;;29.10;69.90;;;;;;5045329;28;20251;-96
2022/07/31 11:23:15;;;;;;;7.38;1.98;;;29.10;71.30;;;;;;5048863;28;20232;-95
2022/07/31 11:25:44;;;;;;;2.65;1.77;;;29.20;70.50;;;;;;5052215;28;20216;-96
2022/07/31 11:28:17;;;;;;;2.50;1.52;;;29.40;71.10;;;;;;5036526;28;20221;-94
2022/07/31 11:30:50;;;;;;;2.72;1.65;;;29.50;68.20;;;;;;5029154;28;20204;-95
2022/07/31 11:33:28;;;;;;;2.15;1.58;;;29.60;68.70;;;;;;5033539;28;20225;-96
2022/07/31 11:35:56;;;;;;;3.20;1.75;;;29.60;69.00;;;;;;5031528;28;20212;-96
2022/07/31 11:38:27;;;;;;;3.65;1.73;;;29.80;69.70;;;;;;5045975;28;20205;-94
2022/07/31 11:40:55;;;;;;;2.67;1.55;;;29.90;67.80;;;;;;5046022;28;20209;-96
2022/07/31 11:43:22;;;;;;;2.53;1.60;;;30.00;67.10;;;;;;5029945;28;20216;-95
2022/07/31 11:45:56;;;;;;;4.78;1.60;;;30.10;66.10;;;;;;5033234;28;20276;-95
2022/07/31 11:48:30;;;;;;;2.25;1.52;;;30.10;64.10;;;;;;5027945;28;20204;-95
2022/07/31 11:50:57;;;;;;;3.92;1.90;;;30.10;64.10;;;;;;5021297;28;20217;-96
2022/07/31 11:53:27;;;;;;;3.78;1.80;;;30.00;64.80;;;;;;5030703;28;20283;-95
2022/07/31 11:55:56;;;;;;;3.78;2.03;;;30.00;64.80;;;;;;5021763;28;20221;-92
2022/07/31 11:58:25;;;;;;;3.70;1.80;;;30.00;65.10;;;;;;5022304;28;20240;-92
2022/07/31 12:00:56;;;;;;;4.13;1.80;;;30.10;65.00;;;;;;5018152;28;20225;-92
2022/07/31 12:03:25;;;;;;;4.25;1.65;;;30.20;63.90;;;;;;5019275;28;20278;-91
2022/07/31 12:05:53;;;;;;;2.22;1.40;;;30.30;63.60;;;;;;5043070;28;20221;-92
2022/07/31 12:08:21;;;;;;;2.53;1.55;;;30.50;63.10;;;;;;5025375;28;20221;-92
2022/07/31 12:10:48;;;;;;;3.88;2.03;;;30.60;64.00;;;;;;5031515;28;20244;-92
2022/07/31 12:13:17;;;;;;;3.45;1.65;;;30.90;64.10;;;;;;5030557;28;20304;-92
2022/07/31 12:15:56;;;;;;;4.95;2.13;;;31.10;62.00;;;;;;5029788;28;20285;-92
2022/07/31 12:18:24;;;;;;;4.05;1.90;;;31.30;62.10;;;;;;5026631;28;20220;-91
2022/07/31 12:20:56;;;;;;;4.97;1.77;;;31.50;61.20;;;;;;5026883;28;20229;-92
2022/07/31 12:23:22;;;;;;;3.08;1.67;;;31.60;59.50;;;;;;5017596;28;20263;-92
2022/07/31 12:25:49;;;;;;;4.68;1.90;;;31.60;59.80;;;;;;5030696;28;20256;-93
2022/07/31 12:28:16;;;;;;;3.85;1.98;;;31.50;59.50;;;;;;5035797;28;20249;-91
2022/07/31 12:30:44;;;;;;;3.13;1.65;;;31.40;58.80;;;;;;5021491;28;20217;-92
2022/07/31 12:33:13;;;;;;;2.58;1.77;;;31.20;59.00;;;;;;5021923;28;20256;-92
2022/07/31 12:35:41;;;;;;;3.10;2.10;;;31.00;59.10;;;;;;5020049;28;20235;-92
2022/07/31 12:38:08;;;;;;;3.38;2.17;;;30.80;59.60;;;;;;5039015;28;20260;-91
2022/07/31 12:40:36;;;;;;;2.15;1.58;;;30.80;59.70;;;;;;5036570;28;20220;-91
2022/07/31 12:43:02;;;;;;;2.85;1.73;;;30.70;60.40;;;;;;5035430;28;20229;-92
2022/07/31 12:45:32;;;;;;;4.25;1.70;;;30.60;59.90;;;;;;5025216;28;20228;-92
2022/07/31 12:47:58;;;;;;;3.78;1.80;;;30.60;60.20;;;;;;5033163;28;20263;-92
2022/07/31 12:50:28;;;;;;;2.50;1.60;;;30.70;60.90;;;;;;5012105;28;20308;-92
2022/07/31 12:52:58;;;;;;;2.90;1.67;;;30.70;59.30;;;;;;5014809;28;20256;-92
2022/07/31 12:55:25;;;;;;;2.95;1.70;;;30.70;58.60;;;;;;5013794;28;20225;-91
2022/07/31 12:57:52;;;;;;;4.30;1.98;;;30.70;59.20;;;;;;5016877;28;20221;-92
2022/07/31 13:00:21;;;;;;;4.72;2.35;;;30.50;58.00;;;;;;5029381;28;20229;-92
2022/07/31 13:02:48;;;;;;;5.65;2.10;;;30.40;58.20;;;;;;5025148;28;20780;-92
2022/07/31 13:05:14;;;;;;;8.50;2.25;;;30.10;59.10;;;;;;5011953;28;20235;-92
2022/07/31 13:07:43;;;;;;;4.75;1.90;;;29.90;59.20;;;;;;5023673;28;20220;-96